Time;durP1;ratioP1;P1;durP2;ratioP2;P2;SDS_P1;SDS_P2;PMS_P1;PMS_P2;Temp;Humidity;BMP_temperature;BMP_pressure;BME280_temperature;BME280_humidity;BME280_pressure;Samples;Min_cycle;Max_cycle;Signal;HPM_P1;HPM_P2
2022/04/21 00:00:34;;;;;;;4.72;1.40;;;;;;;;;;5015374;28;20029;-58
2022/04/21 00:03:01;;;;;;;3.15;1.42;;;;;;;;;;5012285;28;20072;-57
2022/04/21 00:05:27;;;;;;;3.13;1.65;;;;;;;;;;5008691;28;20030;-58
2022/04/21 00:07:53;;;;;;;2.83;1.40;;;;;;;;;;5021418;28;20033;-59
2022/04/21 00:10:19;;;;;;;4.57;1.45;;;;;;;;;;5017727;28;20400;-58
2022/04/21 00:12:45;;;;;;;5.40;1.55;;;;;;;;;;5017316;28;20021;-56
2022/04/21 00:15:11;;;;;;;3.70;1.42;;;;;;;;;;5009883;28;20033;-58
2022/04/21 00:17:38;;;;;;;2.33;1.20;;;;;;;;;;5020451;28;20076;-57
2022/04/21 00:20:04;;;;;;;3.88;1.67;;;;;;;;;;5007816;28;20464;-58
2022/04/21 00:25:17;;;;;;;3.00;1.20;;;;;;;;;;4994817;28;20044;-58
2022/04/21 00:27:44;;;;;;;4.13;1.50;;;;;;;;;;5020954;28;20061;-58
2022/04/21 00:30:11;;;;;;;4.05;1.70;;;;;;;;;;5003826;28;20034;-57
2022/04/21 00:32:37;;;;;;;4.18;1.63;;;;;;;;;;5020725;28;20022;-58
2022/04/21 00:35:04;;;;;;;3.28;1.50;;;;;;;;;;5007282;28;20555;-57
2022/04/21 00:37:30;;;;;;;5.80;1.70;;;;;;;;;;5020544;28;20525;-57
2022/04/21 00:39:56;;;;;;;4.13;1.40;;;;;;;;;;5028386;28;20040;-58
2022/04/21 00:42:23;;;;;;;3.47;1.67;;;;;;;;;;5021137;28;20029;-57
2022/04/21 00:44:50;;;;;;;3.05;1.65;;;;;;;;;;5027104;28;20025;-57
2022/04/21 00:47:18;;;;;;;2.67;1.40;;;;;;;;;;5010522;28;20630;-58
2022/04/21 00:49:45;;;;;;;2.53;1.20;;;;;;;;;;5017231;28;20100;-58
2022/04/21 00:52:11;;;;;;;4.28;1.77;;;;;;;;;;5013331;28;20033;-59
2022/04/21 00:54:37;;;;;;;2.90;1.40;;;;;;;;;;5026667;28;20051;-58
2022/04/21 00:57:05;;;;;;;2.53;1.33;;;;;;;;;;5024629;28;20031;-58
2022/04/21 00:59:31;;;;;;;3.13;1.38;;;;;;;;;;5020254;28;20849;-56
2022/04/21 01:04:42;;;;;;;3.65;1.20;;;;;;;;;;5013227;28;20126;-57
2022/04/21 01:07:08;;;;;;;2.85;1.42;;;;;;;;;;5007493;28;20026;-57
2022/04/21 01:09:36;;;;;;;2.78;1.13;;;;;;;;;;5027129;28;20029;-58
2022/04/21 01:12:03;;;;;;;3.47;1.52;;;;;;;;;;5019839;28;20400;-55
2022/04/21 01:14:30;;;;;;;2.63;1.38;;;;;;;;;;5018873;28;20465;-58
2022/04/21 01:17:00;;;;;;;2.30;1.17;;;;;;;;;;5012515;28;20922;-58
2022/04/21 01:19:26;;;;;;;;;;;;;;;;;;5009811;28;20096;-58
2022/04/21 01:21:52;;;;;;;3.95;1.40;;;;;;;;;;5007482;28;19909;-58
2022/04/21 01:24:18;;;;;;;4.03;1.90;;;;;;;;;;5012231;28;20037;-60
2022/04/21 01:26:46;;;;;;;3.55;1.40;;;;;;;;;;5008409;28;20485;-58
2022/04/21 01:29:12;;;;;;;5.10;1.35;;;;;;;;;;5008201;28;20141;-58
2022/04/21 01:31:38;;;;;;;3.33;1.48;;;;;;;;;;5006051;28;20072;-58
2022/04/21 01:34:04;;;;;;;2.88;1.55;;;;;;;;;;5017873;28;20025;-57
2022/04/21 01:36:31;;;;;;;3.70;1.65;;;;;;;;;;5008488;28;20042;-58
2022/04/21 01:41:42;;;;;;;2.15;0.93;;;;;;;;;;5010051;28;20099;-58
2022/04/21 01:44:08;;;;;;;3.55;1.58;;;;;;;;;;5016306;28;20075;-60
2022/04/21 01:46:34;;;;;;;2.78;1.48;;;;;;;;;;5011126;28;20611;-58
2022/04/21 01:49:00;;;;;;;2.83;1.38;;;;;;;;;;5012237;28;20042;-57
2022/04/21 01:51:26;;;;;;;2.70;1.30;;;;;;;;;;5009328;28;20080;-58
2022/04/21 01:53:52;;;;;;;2.15;1.10;;;;;;;;;;5010750;28;20484;-58
2022/04/21 01:56:18;;;;;;;2.50;1.35;;;;;;;;;;5017508;28;20034;-58
2022/04/21 01:58:45;;;;;;;3.47;1.38;;;;;;;;;;5010355;28;20437;-58
2022/04/21 02:01:12;;;;;;;2.92;1.52;;;;;;;;;;5014360;28;20772;-57
2022/04/21 02:03:38;;;;;;;3.97;1.42;;;;;;;;;;5009206;28;20395;-58
2022/04/21 02:06:04;;;;;;;2.88;1.58;;;;;;;;;;5016601;28;20021;-56
2022/04/21 02:08:31;;;;;;;2.70;1.27;;;;;;;;;;5000476;28;20042;-57
2022/04/21 02:10:58;;;;;;;2.55;1.20;;;;;;;;;;5023753;28;20037;-59
2022/04/21 02:13:24;;;;;;;3.42;1.52;;;;;;;;;;5008516;28;20117;-58
2022/04/21 02:15:50;;;;;;;1.77;1.05;;;;;;;;;;5012841;28;20555;-58
2022/04/21 02:18:17;;;;;;;4.28;1.65;;;;;;;;;;5028035;28;20060;-58
2022/04/21 02:20:43;;;;;;;3.55;1.17;;;;;;;;;;5024340;28;20026;-57
2022/04/21 02:23:09;;;;;;;2.00;1.10;;;;;;;;;;5009348;28;20120;-58
2022/04/21 02:25:35;;;;;;;2.67;1.10;;;;;;;;;;5019078;28;20040;-58
2022/04/21 02:28:02;;;;;;;2.65;1.17;;;;;;;;;;5012865;28;20045;-59
2022/04/21 02:30:28;;;;;;;2.72;1.55;;;;;;;;;;5015212;28;20041;-58
2022/04/21 02:32:54;;;;;;;3.63;1.38;;;;;;;;;;5024490;28;20116;-58
2022/04/21 02:35:20;;;;;;;2.40;1.02;;;;;;;;;;5022444;28;20076;-56
2022/04/21 02:37:47;;;;;;;2.88;1.20;;;;;;;;;;5019250;28;20539;-57
2022/04/21 02:40:13;;;;;;;3.35;1.65;;;;;;;;;;5011556;28;20087;-58
2022/04/21 02:42:40;;;;;;;2.30;1.25;;;;;;;;;;5009555;28;20526;-55
2022/04/21 02:45:07;;;;;;;3.60;1.60;;;;;;;;;;5013843;28;20444;-56
2022/04/21 02:47:35;;;;;;;3.20;1.40;;;;;;;;;;5021768;28;20415;-58
2022/04/21 02:50:01;;;;;;;2.65;1.13;;;;;;;;;;5010112;28;20034;-58
2022/04/21 02:52:27;;;;;;;4.80;1.80;;;;;;;;;;5026186;28;20042;-56
2022/04/21 02:57:40;;;;;;;2.78;1.30;;;;;;;;;;5017304;28;20087;-55
2022/04/21 03:00:07;;;;;;;3.00;1.30;;;;;;;;;;5028140;28;20032;-56
2022/04/21 03:02:33;;;;;;;2.55;1.23;;;;;;;;;;5022430;28;20076;-58
2022/04/21 03:04:59;;;;;;;3.03;1.40;;;;;;;;;;5009534;28;20072;-57
2022/04/21 03:07:25;;;;;;;3.80;1.45;;;;;;;;;;5014624;28;20105;-58
2022/04/21 03:09:53;;;;;;;3.15;1.50;;;;;;;;;;5018628;28;20060;-57
2022/04/21 03:12:19;;;;;;;4.05;1.45;;;;;;;;;;5019859;28;20104;-58
2022/04/21 03:14:45;;;;;;;2.97;1.60;;;;;;;;;;5011223;28;20022;-56
2022/04/21 03:17:11;;;;;;;2.20;1.20;;;;;;;;;;5013315;28;20049;-58
2022/04/21 03:19:38;;;;;;;3.20;1.25;;;;;;;;;;5018516;28;20504;-58
2022/04/21 03:24:49;;;;;;;2.85;1.48;;;;;;;;;;5014664;28;20435;-56
2022/04/21 03:27:15;;;;;;;2.72;1.40;;;;;;;;;;5015580;28;20116;-58
2022/04/21 03:29:41;;;;;;;1.73;1.00;;;;;;;;;;5014630;28;20669;-58
2022/04/21 03:32:13;;;;;;;2.85;1.40;;;;;;;;;;5011947;28;20492;-58
2022/04/21 03:34:42;;;;;;;3.55;1.40;;;;;;;;;;5019193;28;20571;-58
2022/04/21 03:37:10;;;;;;;2.65;1.20;;;;;;;;;;5010539;28;20034;-57
2022/04/21 03:39:36;;;;;;;2.95;1.30;;;;;;;;;;5021597;28;20585;-58
2022/04/21 03:42:03;;;;;;;3.33;1.15;;;;;;;;;;5010822;28;20108;-57
2022/04/21 03:44:29;;;;;;;3.47;1.35;;;;;;;;;;5021371;28;20105;-56
2022/04/21 03:46:58;;;;;;;3.17;1.42;;;;;;;;;;5009683;28;20212;-58
2022/04/21 03:49:27;;;;;;;2.45;1.23;;;;;;;;;;5021275;28;20500;-58
2022/04/21 03:51:54;;;;;;;4.03;1.40;;;;;;;;;;5009649;28;20049;-58
2022/04/21 03:54:20;;;;;;;4.47;1.38;;;;;;;;;;5022171;28;20057;-58
2022/04/21 03:56:46;;;;;;;2.70;1.00;;;;;;;;;;5008240;28;20542;-57
2022/04/21 03:59:12;;;;;;;3.00;1.35;;;;;;;;;;5022003;28;20117;-58
2022/04/21 04:01:38;;;;;;;3.60;1.58;;;;;;;;;;5014673;28;20529;-59
2022/04/21 04:04:04;;;;;;;3.28;1.52;;;;;;;;;;5018456;28;20036;-58
2022/04/21 04:12:00;;;;;;;2.83;1.50;;;;;;;;;;4995846;28;20044;-58
2022/04/21 04:14:28;;;;;;;4.10;1.70;;;;;;;;;;5019341;28;20034;-58
2022/04/21 04:16:54;;;;;;;2.20;1.08;;;;;;;;;;5023545;28;20060;-57
2022/04/21 04:19:20;;;;;;;2.42;1.40;;;;;;;;;;5014513;28;20380;-58
2022/04/21 04:21:46;;;;;;;2.33;1.30;;;;;;;;;;5011684;28;20511;-57
2022/04/21 04:24:12;;;;;;;3.65;1.40;;;;;;;;;;5014631;28;20126;-58
2022/04/21 04:26:38;;;;;;;3.50;1.85;;;;;;;;;;5022555;28;20029;-57
2022/04/21 04:29:05;;;;;;;2.75;1.23;;;;;;;;;;5020050;28;20042;-58
2022/04/21 04:31:31;;;;;;;3.58;1.58;;;;;;;;;;5011437;28;20040;-58
2022/04/21 04:33:57;;;;;;;2.78;1.20;;;;;;;;;;5009360;28;20803;-58
2022/04/21 04:36:24;;;;;;;4.32;1.40;;;;;;;;;;5020737;28;20491;-60
2022/04/21 04:38:50;;;;;;;3.85;1.63;;;;;;;;;;5016170;28;20057;-58
2022/04/21 04:44:01;;;;;;;3.15;1.60;;;;;;;;;;4993518;28;20044;-56
2022/04/21 04:46:37;;;;;;;3.55;1.83;;;;;;;;;;5014668;28;20033;-58
2022/04/21 04:49:06;;;;;;;5.70;2.40;;;;;;;;;;5007892;28;20046;-59
2022/04/21 04:51:32;;;;;;;8.55;3.15;;;;;;;;;;5018104;28;20031;-59
2022/04/21 04:53:58;;;;;;;7.75;3.05;;;;;;;;;;5028332;28;20033;-58
2022/04/21 04:56:27;;;;;;;5.78;2.75;;;;;;;;;;5013939;28;20029;-55
2022/04/21 04:58:53;;;;;;;8.75;3.67;;;;;;;;;;5028845;28;20065;-58
2022/04/21 05:01:26;;;;;;;9.25;3.83;;;;;;;;;;5011913;28;20473;-58
2022/04/21 05:03:52;;;;;;;8.65;3.85;;;;;;;;;;5007425;28;20082;-57
2022/04/21 05:06:18;;;;;;;6.70;4.07;;;;;;;;;;5017077;28;20111;-58
2022/04/21 05:08:44;;;;;;;7.90;3.88;;;;;;;;;;5025880;28;20045;-58
2022/04/21 05:11:11;;;;;;;6.43;4.00;;;;;;;;;;5016154;28;20014;-55
2022/04/21 05:13:37;;;;;;;7.13;3.78;;;;;;;;;;5011231;28;20089;-56
2022/04/21 05:16:03;;;;;;;8.05;3.80;;;;;;;;;;5019119;28;20120;-58
2022/04/21 05:18:29;;;;;;;8.77;3.80;;;;;;;;;;5016533;28;20029;-58
2022/04/21 05:20:57;;;;;;;5.93;3.88;;;;;;;;;;5020263;28;20124;-55
2022/04/21 05:23:24;;;;;;;9.23;3.33;;;;;;;;;;5017174;28;20540;-56
2022/04/21 05:25:50;;;;;;;8.63;4.07;;;;;;;;;;5018524;28;20021;-57
2022/04/21 05:28:16;;;;;;;6.13;3.72;;;;;;;;;;5017132;28;20045;-58
2022/04/21 05:30:55;;;;;;;9.20;3.47;;;;;;;;;;5018093;28;20458;-57
2022/04/21 05:33:23;;;;;;;9.32;4.00;;;;;;;;;;5018341;28;20072;-59
2022/04/21 05:35:49;;;;;;;9.02;3.60;;;;;;;;;;5012130;28;20064;-58
2022/04/21 05:38:16;;;;;;;8.25;4.30;;;;;;;;;;5015466;28;20482;-57
2022/04/21 05:40:42;;;;;;;9.63;3.83;;;;;;;;;;5017738;28;20021;-58
2022/04/21 05:43:10;;;;;;;12.48;4.07;;;;;;;;;;5020733;28;20025;-58
2022/04/21 05:45:36;;;;;;;12.15;4.22;;;;;;;;;;5016405;28;20108;-58
2022/04/21 05:48:03;;;;;;;11.05;4.97;;;;;;;;;;5023308;28;20022;-58
2022/04/21 05:50:29;;;;;;;8.07;3.65;;;;;;;;;;5013048;28;20018;-55
2022/04/21 05:52:58;;;;;;;8.85;3.85;;;;;;;;;;5009435;28;20663;-56
2022/04/21 05:55:24;;;;;;;13.45;3.97;;;;;;;;;;4988251;28;20030;-57
2022/04/21 05:57:50;;;;;;;10.07;3.35;;;;;;;;;;5016877;28;20022;-57
2022/04/21 06:00:17;;;;;;;12.52;3.55;;;;;;;;;;5022312;28;20105;-58
2022/04/21 06:02:43;;;;;;;13.52;4.13;;;;;;;;;;5020475;28;20041;-57
2022/04/21 06:05:09;;;;;;;12.52;3.15;;;;;;;;;;5019059;28;20395;-57
2022/04/21 06:07:35;;;;;;;8.80;3.47;;;;;;;;;;5020645;28;20112;-58
2022/04/21 06:10:03;;;;;;;9.48;3.88;;;;;;;;;;5020770;28;20026;-60
2022/04/21 06:12:29;;;;;;;8.05;3.33;;;;;;;;;;5018123;28;20157;-58
2022/04/21 06:14:56;;;;;;;9.27;3.83;;;;;;;;;;5023434;28;20030;-57
2022/04/21 06:17:22;;;;;;;7.82;3.38;;;;;;;;;;5020380;28;20124;-58
2022/04/21 06:19:49;;;;;;;10.65;3.38;;;;;;;;;;5019129;28;20714;-58
2022/04/21 06:22:15;;;;;;;8.82;3.42;;;;;;;;;;5018966;28;21103;-58
2022/04/21 06:24:42;;;;;;;9.75;2.85;;;;;;;;;;5022419;28;20033;-58
2022/04/21 06:27:08;;;;;;;10.30;3.17;;;;;;;;;;5029714;28;20029;-58
2022/04/21 06:29:35;;;;;;;11.82;3.00;;;;;;;;;;5023408;28;20084;-57
2022/04/21 06:32:01;;;;;;;13.40;3.38;;;;;;;;;;5016853;28;20192;-61
2022/04/21 06:34:27;;;;;;;11.73;3.65;;;;;;;;;;5024333;28;20033;-59
2022/04/21 06:36:53;;;;;;;16.58;3.63;;;;;;;;;;5024107;28;20026;-56
2022/04/21 06:39:20;;;;;;;10.15;3.05;;;;;;;;;;5013051;28;20459;-59
2022/04/21 06:41:45;;;;;;;9.07;2.83;;;;;;;;;;5020667;28;20034;-58
2022/04/21 06:49:41;;;;;;;11.48;3.28;;;;;;;;;;5023425;28;20056;-58
2022/04/21 06:52:07;;;;;;;12.35;2.47;;;;;;;;;;5017163;28;20025;-57
2022/04/21 06:54:33;;;;;;;10.02;3.45;;;;;;;;;;5021636;28;20029;-58
2022/04/21 06:57:00;;;;;;;11.95;2.47;;;;;;;;;;5008575;28;20030;-56
2022/04/21 06:59:27;;;;;;;11.63;4.70;;;;;;;;;;5016309;28;20087;-56
2022/04/21 07:01:53;;;;;;;11.18;3.10;;;;;;;;;;5013103;28;20156;-57
2022/04/21 07:04:20;;;;;;;11.68;3.38;;;;;;;;;;5013506;28;20125;-58
2022/04/21 07:06:46;;;;;;;10.00;2.75;;;;;;;;;;5026868;28;20199;-57
2022/04/21 07:09:13;;;;;;;6.28;2.78;;;;;;;;;;5027699;28;20056;-58
2022/04/21 07:11:39;;;;;;;14.32;3.28;;;;;;;;;;5017794;28;20408;-58
2022/04/21 07:14:05;;;;;;;11.55;2.63;;;;;;;;;;5014969;28;20440;-55
2022/04/21 07:16:31;;;;;;;11.65;3.40;;;;;;;;;;5017215;28;20555;-58
2022/04/21 07:18:57;;;;;;;10.43;2.97;;;;;;;;;;5009724;28;20033;-58
2022/04/21 07:21:23;;;;;;;7.70;2.65;;;;;;;;;;5022444;28;20500;-61
2022/04/21 07:23:50;;;;;;;9.63;3.15;;;;;;;;;;5008695;28;20492;-61
2022/04/21 07:26:16;;;;;;;13.07;2.90;;;;;;;;;;5014987;28;20640;-58
2022/04/21 07:28:44;;;;;;;8.32;2.63;;;;;;;;;;5021488;28;20053;-59
2022/04/21 07:31:11;;;;;;;8.63;2.72;;;;;;;;;;5010932;28;20030;-58
2022/04/21 07:33:37;;;;;;;10.73;2.58;;;;;;;;;;5019224;28;21071;-59
2022/04/21 07:36:03;;;;;;;7.30;2.80;;;;;;;;;;5011458;28;20128;-58
2022/04/21 07:38:31;;;;;;;7.05;2.60;;;;;;;;;;5018885;28;20075;-59
2022/04/21 07:40:57;;;;;;;9.93;2.75;;;;;;;;;;5017022;28;20042;-59
2022/04/21 07:43:23;;;;;;;8.68;2.50;;;;;;;;;;5019437;28;20033;-59
2022/04/21 07:45:49;;;;;;;7.80;2.55;;;;;;;;;;5021751;28;20387;-58
2022/04/21 07:48:15;;;;;;;9.57;3.00;;;;;;;;;;5016214;28;20034;-59
2022/04/21 07:50:42;;;;;;;15.40;3.65;;;;;;;;;;5016221;28;20039;-59
2022/04/21 07:53:13;;;;;;;9.18;2.72;;;;;;;;;;5017984;28;20034;-58
2022/04/21 07:55:40;;;;;;;13.95;2.78;;;;;;;;;;5020095;28;20434;-59
2022/04/21 07:58:07;;;;;;;9.77;2.58;;;;;;;;;;5023700;28;20916;-57
2022/04/21 08:00:36;;;;;;;6.90;2.47;;;;;;;;;;5022000;28;20021;-58
2022/04/21 08:03:03;;;;;;;8.07;2.13;;;;;;;;;;5015774;28;20084;-59
2022/04/21 08:05:30;;;;;;;7.03;2.47;;;;;;;;;;5019679;28;20032;-59
2022/04/21 08:07:56;;;;;;;14.85;2.65;;;;;;;;;;5017677;28;20044;-58
2022/04/21 08:10:24;;;;;;;4.88;2.00;;;;;;;;;;5017282;28;20112;-58
2022/04/21 08:12:51;;;;;;;7.85;2.50;;;;;;;;;;5022317;28;20037;-59
2022/04/21 08:15:27;;;;;;;7.00;2.30;;;;;;;;;;5022093;28;20100;-60
2022/04/21 08:17:54;;;;;;;5.47;2.20;;;;;;;;;;5018518;28;20132;-59
2022/04/21 08:20:20;;;;;;;8.32;2.65;;;;;;;;;;5018873;28;20548;-57
2022/04/21 08:22:47;;;;;;;7.18;2.35;;;;;;;;;;5017824;28;20108;-59
2022/04/21 08:33:29;;;;;;;6.72;2.10;;;;;;;;;;5014199;28;20452;-58
2022/04/21 08:35:58;;;;;;;7.75;2.30;;;;;;;;;;5015429;28;20033;-58
2022/04/21 08:38:28;;;;;;;5.20;1.63;;;;;;;;;;5015542;28;20033;-58
2022/04/21 08:40:54;;;;;;;10.37;1.90;;;;;;;;;;5017882;28;20046;-57
2022/04/21 08:43:21;;;;;;;8.15;1.98;;;;;;;;;;5019136;28;20281;-59
2022/04/21 08:45:49;;;;;;;3.72;1.58;;;;;;;;;;5017648;28;20025;-60
2022/04/21 08:48:16;;;;;;;4.22;1.60;;;;;;;;;;5018363;28;20026;-58
2022/04/21 08:50:42;;;;;;;4.35;1.75;;;;;;;;;;5014541;28;20028;-56
2022/04/21 08:53:10;;;;;;;4.57;2.05;;;;;;;;;;5017507;28;20076;-55
2022/04/21 08:55:36;;;;;;;6.82;2.00;;;;;;;;;;5018653;28;20112;-57
2022/04/21 08:58:03;;;;;;;4.30;1.67;;;;;;;;;;5017146;28;20055;-56
2022/04/21 09:00:32;;;;;;;6.55;1.67;;;;;;;;;;5017535;28;20477;-57
2022/04/21 09:02:59;;;;;;;12.07;2.05;;;;;;;;;;5016059;28;20704;-59
2022/04/21 09:05:29;;;;;;;10.70;1.80;;;;;;;;;;5011970;28;20026;-59
2022/04/21 09:07:56;;;;;;;13.70;2.17;;;;;;;;;;5015190;28;20068;-58
2022/04/21 09:10:22;;;;;;;8.13;2.25;;;;;;;;;;5014534;28;20459;-59
2022/04/21 09:12:55;;;;;;;9.57;2.75;;;;;;;;;;5013989;28;20026;-59
2022/04/21 09:15:22;;;;;;;11.27;2.10;;;;;;;;;;5011383;28;20733;-59
2022/04/21 09:17:53;;;;;;;9.55;2.50;;;;;;;;;;5018291;28;20053;-58
2022/04/21 09:20:23;;;;;;;9.00;1.75;;;;;;;;;;5018515;28;20033;-58
2022/04/21 09:22:49;;;;;;;14.10;1.45;;;;;;;;;;5016326;28;20156;-58
2022/04/21 09:25:15;;;;;;;8.50;1.90;;;;;;;;;;5017695;28;20040;-58
2022/04/21 09:27:44;;;;;;;8.80;2.28;;;;;;;;;;5016983;28;20069;-58
2022/04/21 09:30:12;;;;;;;13.48;2.28;;;;;;;;;;5020450;28;20548;-56
2022/04/21 09:32:39;;;;;;;9.25;2.40;;;;;;;;;;5017445;28;20022;-57
2022/04/21 09:35:06;;;;;;;11.25;1.77;;;;;;;;;;5021503;28;20100;-58
2022/04/21 09:37:33;;;;;;;12.10;2.53;;;;;;;;;;5022863;28;20022;-58
2022/04/21 09:40:01;;;;;;;13.55;2.50;;;;;;;;;;5023094;28;20021;-57
2022/04/21 09:42:28;;;;;;;16.60;2.35;;;;;;;;;;5017278;28;20049;-57
2022/04/21 09:47:49;;;;;;;7.78;1.92;;;;;;;;;;5020195;28;20065;-58
2022/04/21 09:50:15;;;;;;;9.90;2.15;;;;;;;;;;5021979;28;20029;-57
2022/04/21 09:52:48;;;;;;;9.55;1.80;;;;;;;;;;5022542;28;20476;-56
2022/04/21 09:55:21;;;;;;;14.85;2.38;;;;;;;;;;5022420;28;20480;-59
2022/04/21 09:57:47;;;;;;;9.90;2.15;;;;;;;;;;5026831;28;20762;-59
2022/04/21 10:00:14;;;;;;;6.40;1.52;;;;;;;;;;5020000;28;20448;-60
2022/04/21 10:02:45;;;;;;;9.02;1.83;;;;;;;;;;5023587;28;20021;-60
2022/04/21 10:05:12;;;;;;;11.45;2.20;;;;;;;;;;5024551;28;20512;-59
2022/04/21 10:07:38;;;;;;;6.40;2.17;;;;;;;;;;5021700;28;20155;-59
2022/04/21 10:10:04;;;;;;;7.47;2.13;;;;;;;;;;5020695;28;20030;-59
2022/04/21 10:12:31;;;;;;;9.32;1.90;;;;;;;;;;5019022;28;20033;-59
2022/04/21 10:14:57;;;;;;;6.40;1.88;;;;;;;;;;5021365;28;20456;-60
2022/04/21 10:17:23;;;;;;;8.02;2.20;;;;;;;;;;5022294;28;20042;-59
2022/04/21 10:19:50;;;;;;;8.43;2.10;;;;;;;;;;5022502;28;20030;-59
2022/04/21 10:22:17;;;;;;;4.57;1.80;;;;;;;;;;5021742;28;20052;-60
2022/04/21 10:24:46;;;;;;;8.48;2.15;;;;;;;;;;5024314;28;20037;-59
2022/04/21 10:27:31;;;;;;;7.35;2.15;;;;;;;;;;5023510;28;20025;-59
2022/04/21 10:29:57;;;;;;;3.67;1.70;;;;;;;;;;5022933;28;20087;-58
2022/04/21 10:32:43;;;;;;;6.68;2.38;;;;;;;;;;5023984;28;20034;-59
2022/04/21 10:35:41;;;;;;;4.97;2.10;;;;;;;;;;5023046;28;20034;-60
2022/04/21 10:38:13;;;;;;;7.57;1.75;;;;;;;;;;5022463;28;20067;-59
2022/04/21 10:40:56;;;;;;;8.32;2.05;;;;;;;;;;5023883;28;20032;-58
2022/04/21 10:43:22;;;;;;;4.93;1.55;;;;;;;;;;5016434;28;20183;-59
2022/04/21 10:46:18;;;;;;;6.25;2.03;;;;;;;;;;5019315;28;20034;-59
2022/04/21 10:48:44;;;;;;;5.32;1.80;;;;;;;;;;5020616;28;20411;-60
2022/04/21 10:51:11;;;;;;;5.90;2.13;;;;;;;;;;5019132;28;20037;-60
2022/04/21 10:59:29;;;;;;;8.55;2.55;;;;;;;;;;5019086;28;20094;-58
2022/04/21 11:01:55;;;;;;;10.93;2.53;;;;;;;;;;5020586;28;20112;-59
2022/04/21 11:04:27;;;;;;;8.88;2.17;;;;;;;;;;5016396;28;20080;-58
2022/04/21 11:07:07;;;;;;;7.82;2.63;;;;;;;;;;5019086;28;20066;-58
2022/04/21 11:09:36;;;;;;;18.80;2.93;;;;;;;;;;5020623;28;20099;-59
2022/04/21 11:12:04;;;;;;;10.98;3.13;;;;;;;;;;5019392;28;20333;-60
2022/04/21 11:14:32;;;;;;;7.38;2.88;;;;;;;;;;5023052;28;20036;-60
2022/04/21 11:16:59;;;;;;;9.55;2.53;;;;;;;;;;5023143;28;20076;-59
2022/04/21 11:19:50;;;;;;;5.57;1.98;;;;;;;;;;5017400;28;20071;-60
2022/04/21 11:22:45;;;;;;;6.90;2.33;;;;;;;;;;5022279;28;20026;-59
2022/04/21 11:25:12;;;;;;;6.03;2.72;;;;;;;;;;5021201;28;20033;-57
2022/04/21 11:27:42;;;;;;;5.85;2.33;;;;;;;;;;5021959;28;20061;-57
2022/04/21 11:30:09;;;;;;;6.68;2.25;;;;;;;;;;5022828;28;20063;-58
2022/04/21 11:32:35;;;;;;;5.30;2.40;;;;;;;;;;5023203;28;20466;-58
2022/04/21 11:35:04;;;;;;;4.63;2.40;;;;;;;;;;5020214;28;20064;-59
2022/04/21 11:37:45;;;;;;;5.05;2.65;;;;;;;;;;5019989;28;20030;-59
2022/04/21 11:40:28;;;;;;;8.02;3.47;;;;;;;;;;5022220;28;20072;-59
2022/04/21 11:42:55;;;;;;;5.88;2.83;;;;;;;;;;5019248;28;20041;-58
2022/04/21 11:45:22;;;;;;;6.28;2.92;;;;;;;;;;5018796;28;20053;-59
2022/04/21 11:47:49;;;;;;;5.55;2.38;;;;;;;;;;5022313;28;20049;-58
2022/04/21 11:50:18;;;;;;;5.80;2.90;;;;;;;;;;5021225;28;20084;-58
2022/04/21 11:52:46;;;;;;;5.63;2.90;;;;;;;;;;5019252;28;20184;-59
2022/04/21 11:55:15;;;;;;;5.57;2.20;;;;;;;;;;5022327;28;20575;-59
2022/04/21 11:57:42;;;;;;;5.32;3.13;;;;;;;;;;5022080;28;20458;-59
2022/04/21 12:06:29;;;;;;;6.25;3.00;;;;;;;;;;5014244;28;20060;-60
2022/04/21 12:08:56;;;;;;;5.32;2.65;;;;;;;;;;5019909;28;20087;-59
2022/04/21 12:11:22;;;;;;;6.78;2.78;;;;;;;;;;5019175;28;20032;-59
2022/04/21 12:13:49;;;;;;;5.85;2.97;;;;;;;;;;5017773;28;20057;-58
2022/04/21 12:16:35;;;;;;;9.55;3.15;;;;;;;;;;5018243;28;20496;-58
2022/04/21 12:19:24;;;;;;;6.57;2.42;;;;;;;;;;5021203;28;20488;-58
2022/04/21 12:21:56;;;;;;;5.50;2.40;;;;;;;;;;5009908;28;20084;-58
2022/04/21 12:24:27;;;;;;;9.55;3.00;;;;;;;;;;5019495;28;20065;-58
2022/04/21 12:26:54;;;;;;;7.60;3.05;;;;;;;;;;5024669;28;20021;-58
2022/04/21 12:29:21;;;;;;;10.70;3.40;;;;;;;;;;5020777;28;20062;-58
2022/04/21 12:31:54;;;;;;;5.60;2.70;;;;;;;;;;5019639;28;20049;-58
2022/04/21 12:34:22;;;;;;;6.47;3.15;;;;;;;;;;5019001;28;20104;-58
2022/04/21 12:36:51;;;;;;;6.40;3.30;;;;;;;;;;5018253;28;20033;-58
2022/04/21 12:39:18;;;;;;;7.40;3.17;;;;;;;;;;5018074;28;20029;-57
2022/04/21 12:41:45;;;;;;;8.73;3.78;;;;;;;;;;5022707;28;20029;-56
2022/04/21 12:44:11;;;;;;;7.70;2.83;;;;;;;;;;5015879;28;20429;-59
2022/04/21 12:46:37;;;;;;;7.10;2.65;;;;;;;;;;5015440;28;20055;-58
2022/04/21 12:49:03;;;;;;;6.07;3.05;;;;;;;;;;5022462;28;20036;-57
2022/04/21 12:51:30;;;;;;;7.35;3.08;;;;;;;;;;5020271;28;20037;-54
2022/04/21 12:54:00;;;;;;;5.25;3.38;;;;;;;;;;5018529;28;20135;-58
2022/04/21 12:56:36;;;;;;;6.13;3.78;;;;;;;;;;5017170;28;20033;-58
2022/04/21 12:59:02;;;;;;;5.97;3.30;;;;;;;;;;5018923;28;20029;-58
2022/04/21 13:01:28;;;;;;;5.00;2.80;;;;;;;;;;5020669;28;20048;-58
2022/04/21 13:03:55;;;;;;;5.68;3.42;;;;;;;;;;5019492;28;20040;-56
2022/04/21 13:06:29;;;;;;;5.53;2.95;;;;;;;;;;5017208;28;20022;-57
2022/04/21 13:08:56;;;;;;;5.53;3.30;;;;;;;;;;5019594;28;20037;-58
2022/04/21 13:11:22;;;;;;;4.80;3.00;;;;;;;;;;5019642;28;20080;-57
2022/04/21 13:13:49;;;;;;;6.07;3.10;;;;;;;;;;5019793;28;20483;-57
2022/04/21 13:16:15;;;;;;;6.05;3.63;;;;;;;;;;5020297;28;20045;-55
2022/04/21 13:18:41;;;;;;;5.53;3.50;;;;;;;;;;5018529;28;20430;-56
2022/04/21 13:23:52;;;;;;;6.57;3.63;;;;;;;;;;5017214;28;20415;-58
2022/04/21 13:26:20;;;;;;;6.22;3.78;;;;;;;;;;5018435;28;20095;-57
2022/04/21 13:28:48;;;;;;;6.38;3.53;;;;;;;;;;5020827;28;20039;-58
2022/04/21 13:33:59;;;;;;;6.88;3.78;;;;;;;;;;5018437;28;20124;-58
2022/04/21 13:36:25;;;;;;;5.68;3.63;;;;;;;;;;5021313;28;20029;-58
2022/04/21 13:38:52;;;;;;;8.05;3.88;;;;;;;;;;5019980;28;20124;-58
2022/04/21 13:41:20;;;;;;;6.10;3.97;;;;;;;;;;5019626;28;20101;-56
2022/04/21 13:43:46;;;;;;;6.35;3.90;;;;;;;;;;5018403;28;20071;-57
2022/04/21 13:46:12;;;;;;;4.60;3.25;;;;;;;;;;5018101;28;20041;-57
2022/04/21 13:48:38;;;;;;;6.53;3.60;;;;;;;;;;5018403;28;20488;-57
2022/04/21 13:51:04;;;;;;;5.63;3.50;;;;;;;;;;5017475;28;20105;-58
2022/04/21 13:53:31;;;;;;;8.10;4.35;;;;;;;;;;5019443;28;20041;-56
2022/04/21 13:55:57;;;;;;;7.35;3.88;;;;;;;;;;5018125;28;20029;-56
2022/04/21 13:58:23;;;;;;;6.88;3.92;;;;;;;;;;5017065;28;20037;-57
2022/04/21 14:00:49;;;;;;;7.47;3.60;;;;;;;;;;5020066;28;20430;-54
2022/04/21 14:03:15;;;;;;;8.20;3.25;;;;;;;;;;5017980;28;20034;-56
2022/04/21 14:05:42;;;;;;;8.43;2.85;;;;;;;;;;5017618;28;20041;-58
2022/04/21 14:08:09;;;;;;;7.43;3.03;;;;;;;;;;5018252;28;20042;-58
2022/04/21 14:10:35;;;;;;;8.88;3.22;;;;;;;;;;5018667;28;20069;-57
2022/04/21 14:13:02;;;;;;;5.35;2.90;;;;;;;;;;5016019;28;20041;-57
2022/04/21 14:15:28;;;;;;;8.85;3.20;;;;;;;;;;5019054;28;20037;-58
2022/04/21 14:17:55;;;;;;;6.28;2.50;;;;;;;;;;5016042;28;20043;-58
2022/04/21 14:20:21;;;;;;;5.13;3.08;;;;;;;;;;5017281;28;20033;-56
2022/04/21 14:22:47;;;;;;;7.88;3.30;;;;;;;;;;5019680;28;20029;-59
2022/04/21 14:25:14;;;;;;;8.13;3.20;;;;;;;;;;5021639;28;20038;-57
2022/04/21 14:27:40;;;;;;;8.57;3.38;;;;;;;;;;5019748;28;20026;-57
2022/04/21 14:30:06;;;;;;;6.32;2.80;;;;;;;;;;5019613;28;20033;-57
2022/04/21 14:32:33;;;;;;;6.40;2.65;;;;;;;;;;5023254;28;20048;-56
2022/04/21 14:34:59;;;;;;;4.45;2.35;;;;;;;;;;5021060;28;20453;-56
2022/04/21 14:45:42;;;;;;;7.78;2.83;;;;;;;;;;5017499;28;20037;-57
2022/04/21 14:48:08;;;;;;;9.63;3.17;;;;;;;;;;5020535;28;20420;-57
2022/04/21 14:50:35;;;;;;;10.77;2.95;;;;;;;;;;5019667;28;20109;-57
2022/04/21 14:53:01;;;;;;;11.50;2.90;;;;;;;;;;5021203;28;20030;-56
2022/04/21 14:55:27;;;;;;;7.10;2.40;;;;;;;;;;5019052;28;20079;-56
2022/04/21 14:57:53;;;;;;;6.85;2.40;;;;;;;;;;5017693;28;20029;-56
2022/04/21 15:00:19;;;;;;;4.05;2.33;;;;;;;;;;5020672;28;20029;-56
2022/04/21 15:02:45;;;;;;;6.03;2.13;;;;;;;;;;5018052;28;20022;-57
2022/04/21 15:05:11;;;;;;;6.85;2.50;;;;;;;;;;5017388;28;20080;-57
2022/04/21 15:07:37;;;;;;;7.45;2.25;;;;;;;;;;5017137;28;20021;-57
2022/04/21 15:10:04;;;;;;;5.82;2.67;;;;;;;;;;5016845;28;20047;-56
2022/04/21 15:12:30;;;;;;;7.72;2.30;;;;;;;;;;5020289;28;20030;-56
2022/04/21 15:14:56;;;;;;;5.50;2.70;;;;;;;;;;5020274;28;20029;-60
2022/04/21 15:17:22;;;;;;;13.60;2.92;;;;;;;;;;5017751;28;20124;-60
2022/04/21 15:19:49;;;;;;;6.50;3.25;;;;;;;;;;5017816;28;20502;-59
2022/04/21 15:22:17;;;;;;;10.35;3.28;;;;;;;;;;5019882;28;20076;-59
2022/04/21 15:24:43;;;;;;;6.47;3.05;;;;;;;;;;5016211;28;20041;-59
2022/04/21 15:27:09;;;;;;;9.68;3.00;;;;;;;;;;5019574;28;20096;-57
2022/04/21 15:29:37;;;;;;;5.55;3.35;;;;;;;;;;5016868;28;20048;-57
2022/04/21 15:32:03;;;;;;;14.50;3.40;;;;;;;;;;5016476;28;20502;-57
2022/04/21 15:34:29;;;;;;;7.22;3.38;;;;;;;;;;5018111;28;20115;-57
2022/04/21 15:36:55;;;;;;;12.50;4.03;;;;;;;;;;5019529;28;20025;-56
2022/04/21 15:42:19;;;;;;;8.82;4.38;;;;;;;;;;5020941;28;20083;-56
2022/04/21 15:44:45;;;;;;;11.95;4.47;;;;;;;;;;5021478;28;20033;-57
2022/04/21 15:47:11;;;;;;;10.93;4.28;;;;;;;;;;5020739;28;20040;-56
2022/04/21 15:49:37;;;;;;;7.90;4.18;;;;;;;;;;5023538;28;20036;-55